createdAt,value
2023-03-20T00:00:52.602Z,1006.90
2023-03-20T00:01:52.596Z,1006.88
2023-03-20T00:02:52.571Z,1006.84
2023-03-20T00:03:52.625Z,1006.89
2023-03-20T00:04:52.650Z,1006.90
2023-03-20T00:05:57.567Z,1006.89
2023-03-20T00:06:52.549Z,1006.96
2023-03-20T00:07:52.508Z,1006.84
2023-03-20T00:08:52.505Z,1006.86
2023-03-20T00:09:52.498Z,1006.89
2023-03-20T00:10:52.473Z,1006.86
2023-03-20T00:11:52.467Z,1006.91
2023-03-20T00:12:52.470Z,1006.93
2023-03-20T00:13:52.448Z,1006.96
2023-03-20T00:14:52.435Z,1007.01
2023-03-20T00:15:52.488Z,1006.87
2023-03-20T00:16:57.457Z,1007.00
2023-03-20T00:17:52.400Z,1007.02
2023-03-20T00:18:52.394Z,1007.02
2023-03-20T00:19:52.390Z,1007.02
2023-03-20T00:20:52.361Z,1007.03
2023-03-20T00:21:52.355Z,1007.07
2023-03-20T00:22:52.339Z,1007.11
2023-03-20T00:23:52.330Z,1007.11
2023-03-20T00:24:52.349Z,1007.06
2023-03-20T00:25:52.322Z,1007.12
2023-03-20T00:26:52.295Z,1007.09
2023-03-20T00:27:57.349Z,1007.11
2023-03-20T00:28:52.272Z,1007.09
2023-03-20T00:29:52.262Z,1007.07
2023-03-20T00:30:52.273Z,1007.02
2023-03-20T00:31:52.466Z,1007.09
2023-03-20T00:32:52.316Z,1007.08
2023-03-20T00:33:52.238Z,1007.05
2023-03-20T00:34:52.207Z,1007.00
2023-03-20T00:35:52.227Z,1007.08
2023-03-20T00:36:52.187Z,1007.06
2023-03-20T00:37:52.184Z,1007.03
2023-03-20T00:38:57.225Z,1007.05
2023-03-20T00:39:52.154Z,1007.06
2023-03-20T00:40:52.152Z,1007.14
2023-03-20T00:41:52.136Z,1007.10
2023-03-20T00:42:52.122Z,1007.08
2023-03-20T00:43:52.109Z,1007.08
2023-03-20T00:44:52.142Z,1007.07
2023-03-20T00:45:52.129Z,1007.08
2023-03-20T00:46:52.117Z,1007.12
2023-03-20T00:47:52.068Z,1007.13
2023-03-20T00:48:52.082Z,1007.08
2023-03-20T00:49:57.070Z,1007.03
2023-03-20T00:50:52.112Z,1007.10
2023-03-20T00:51:52.026Z,1007.00
2023-03-20T00:52:52.018Z,1007.04
2023-03-20T00:53:52.013Z,1007.03
2023-03-20T00:54:52.011Z,1007.03
2023-03-20T00:55:51.988Z,1006.98
2023-03-20T00:56:51.968Z,1007.04
2023-03-20T00:57:51.961Z,1007.01
2023-03-20T00:58:51.965Z,1006.94
2023-03-20T00:59:51.945Z,1007.00
2023-03-20T01:00:56.969Z,1007.06
2023-03-20T01:01:51.955Z,1007.07
2023-03-20T01:02:51.918Z,1007.07
2023-03-20T01:03:51.888Z,1007.11
2023-03-20T01:04:51.898Z,1007.09
2023-03-20T01:05:51.896Z,1007.11
2023-03-20T01:06:51.851Z,1007.10
2023-03-20T01:07:51.844Z,1007.12
2023-03-20T01:08:51.851Z,1007.19
2023-03-20T01:09:51.831Z,1007.10
2023-03-20T01:10:51.826Z,1007.08
2023-03-20T01:11:56.822Z,1007.07
2023-03-20T01:12:51.788Z,1007.08
2023-03-20T01:13:51.776Z,1007.13
2023-03-20T01:14:51.782Z,1007.10
2023-03-20T01:15:51.765Z,1007.12
2023-03-20T01:16:51.838Z,1007.16
2023-03-20T01:17:51.729Z,1007.15
2023-03-20T01:18:51.716Z,1007.13
2023-03-20T01:19:51.716Z,1007.07
2023-03-20T01:20:51.733Z,1007.12
2023-03-20T01:21:51.687Z,1007.10
2023-03-20T01:22:56.701Z,1007.17
2023-03-20T01:23:51.695Z,1007.07
2023-03-20T01:24:51.651Z,1007.15
2023-03-20T01:25:51.650Z,1007.09
2023-03-20T01:26:51.656Z,1007.17
2023-03-20T01:27:51.632Z,1007.15
2023-03-20T01:28:51.607Z,1007.05
2023-03-20T01:29:51.598Z,1007.12
2023-03-20T01:30:51.593Z,1007.10
2023-03-20T01:31:51.654Z,1007.14
2023-03-20T01:32:51.605Z,1007.15
2023-03-20T01:33:56.576Z,1007.12
2023-03-20T01:34:51.545Z,1007.07
2023-03-20T01:35:51.584Z,1007.12
2023-03-20T01:36:51.537Z,1007.06
2023-03-20T01:37:51.514Z,1007.09
2023-03-20T01:38:51.518Z,1007.10
2023-03-20T01:39:51.490Z,1007.15
2023-03-20T01:40:51.483Z,1007.16
2023-03-20T01:41:51.470Z,1007.15
2023-03-20T01:42:51.452Z,1007.23
2023-03-20T01:43:51.453Z,1007.24
2023-03-20T01:44:56.485Z,1007.22
2023-03-20T01:45:51.443Z,1007.20
2023-03-20T01:46:51.416Z,1007.22
2023-03-20T01:47:51.396Z,1007.22
2023-03-20T01:48:51.382Z,1007.29
2023-03-20T01:49:51.393Z,1007.26
2023-03-20T01:50:51.389Z,1007.25
2023-03-20T01:51:51.365Z,1007.23
2023-03-20T01:52:51.364Z,1007.24
2023-03-20T01:53:51.338Z,1007.32
2023-03-20T01:54:51.317Z,1007.26
2023-03-20T01:55:56.384Z,1007.32
2023-03-20T01:56:51.297Z,1007.34
2023-03-20T01:57:51.292Z,1007.25
2023-03-20T01:58:51.274Z,1007.26
2023-03-20T01:59:51.289Z,1007.30
2023-03-20T02:00:51.326Z,1007.26
2023-03-20T02:01:51.287Z,1007.29
2023-03-20T02:02:51.237Z,1007.28
2023-03-20T02:03:51.232Z,1007.31
2023-03-20T02:04:51.285Z,1007.30
2023-03-20T02:05:51.215Z,1007.32
2023-03-20T02:06:56.216Z,1007.33
2023-03-20T02:07:51.218Z,1007.33
2023-03-20T02:08:51.236Z,1007.27
2023-03-20T02:09:51.156Z,1007.31
2023-03-20T02:10:51.142Z,1007.27
2023-03-20T02:11:51.151Z,1007.26
2023-03-20T02:12:51.123Z,1007.27
2023-03-20T02:13:51.129Z,1007.23
2023-03-20T02:14:51.096Z,1007.26
2023-03-20T02:15:51.088Z,1007.27
2023-03-20T02:16:51.098Z,1007.28
2023-03-20T02:17:56.096Z,1007.26
2023-03-20T02:18:51.056Z,1007.31
2023-03-20T02:19:51.077Z,1007.33
2023-03-20T02:20:51.031Z,1007.34
2023-03-20T02:21:51.030Z,1007.32
2023-03-20T02:22:51.012Z,1007.29
2023-03-20T02:23:51.010Z,1007.33
2023-03-20T02:24:51.006Z,1007.37
2023-03-20T02:25:50.999Z,1007.33
2023-03-20T02:26:50.980Z,1007.36
2023-03-20T02:27:50.954Z,1007.37
2023-03-20T02:28:55.965Z,1007.33
2023-03-20T02:29:50.929Z,1007.35
2023-03-20T02:30:50.931Z,1007.38
2023-03-20T02:31:50.934Z,1007.32
2023-03-20T02:32:50.950Z,1007.36
2023-03-20T02:33:50.897Z,1007.35
2023-03-20T02:34:50.876Z,1007.41
2023-03-20T02:35:50.885Z,1007.41
2023-03-20T02:36:50.860Z,1007.40
2023-03-20T02:37:50.867Z,1007.41
2023-03-20T02:38:50.828Z,1007.39
2023-03-20T02:39:55.868Z,1007.35
2023-03-20T02:40:50.810Z,1007.38
2023-03-20T02:41:50.842Z,1007.39
2023-03-20T02:42:50.786Z,1007.43
2023-03-20T02:43:50.805Z,1007.38
2023-03-20T02:44:50.762Z,1007.33
2023-03-20T02:45:50.828Z,1007.32
2023-03-20T02:46:50.751Z,1007.35
2023-03-20T02:47:50.735Z,1007.32
2023-03-20T02:48:50.720Z,1007.32
2023-03-20T02:49:50.740Z,1007.34
2023-03-20T02:50:55.730Z,1007.34
2023-03-20T02:51:50.696Z,1007.34
2023-03-20T02:52:50.678Z,1007.34
2023-03-20T02:53:50.667Z,1007.33
2023-03-20T02:54:50.652Z,1007.38
2023-03-20T02:55:50.676Z,1007.34
2023-03-20T02:56:50.642Z,1007.33
2023-03-20T02:57:50.623Z,1007.39
2023-03-20T02:58:50.634Z,1007.41
2023-03-20T02:59:50.596Z,1007.44
2023-03-20T03:00:50.586Z,1007.44
2023-03-20T03:01:55.668Z,1007.42
2023-03-20T03:02:50.670Z,1007.39
2023-03-20T03:03:50.556Z,1007.44
2023-03-20T03:04:50.546Z,1007.47
2023-03-20T03:05:50.533Z,1007.49
2023-03-20T03:06:50.549Z,1007.47
2023-03-20T03:07:50.512Z,1007.43
2023-03-20T03:08:50.509Z,1007.44
2023-03-20T03:09:50.496Z,1007.47
2023-03-20T03:10:50.492Z,1007.46
2023-03-20T03:11:50.505Z,1007.49
2023-03-20T03:12:55.489Z,1007.44
2023-03-20T03:13:50.504Z,1007.43
2023-03-20T03:14:50.441Z,1007.47
2023-03-20T03:15:50.534Z,1007.44
2023-03-20T03:16:50.408Z,1007.43
2023-03-20T03:17:50.409Z,1007.43
2023-03-20T03:18:50.395Z,1007.46
2023-03-20T03:19:50.390Z,1007.47
2023-03-20T03:20:50.368Z,1007.40
2023-03-20T03:21:50.352Z,1007.44
2023-03-20T03:22:50.353Z,1007.43
2023-03-20T03:23:55.367Z,1007.44
2023-03-20T03:24:50.320Z,1007.46
2023-03-20T03:25:50.340Z,1007.54
2023-03-20T03:26:50.302Z,1007.45
2023-03-20T03:27:50.317Z,1007.45
2023-03-20T03:28:50.278Z,1007.50
2023-03-20T03:29:50.263Z,1007.49
2023-03-20T03:30:50.296Z,1007.48
2023-03-20T03:31:50.287Z,1007.46
2023-03-20T03:32:50.259Z,1007.47
2023-03-20T03:33:50.221Z,1007.39
2023-03-20T03:34:55.235Z,1007.35
2023-03-20T03:35:50.224Z,1007.34
2023-03-20T03:36:50.188Z,1007.27
2023-03-20T03:37:50.204Z,1007.24
2023-03-20T03:38:50.166Z,1007.26
2023-03-20T03:39:50.161Z,1007.28
2023-03-20T03:40:50.148Z,1007.24
2023-03-20T03:41:50.136Z,1007.27
2023-03-20T03:42:50.130Z,1007.24
2023-03-20T03:43:50.139Z,1007.28
2023-03-20T03:44:50.107Z,1007.35
2023-03-20T03:45:55.122Z,1007.33
2023-03-20T03:46:50.132Z,1007.34
2023-03-20T03:47:50.076Z,1007.27
2023-03-20T03:48:50.050Z,1007.30
2023-03-20T03:49:50.057Z,1007.32
2023-03-20T03:50:50.028Z,1007.33
2023-03-20T03:51:50.021Z,1007.32
2023-03-20T03:52:50.020Z,1007.31
2023-03-20T03:53:49.999Z,1007.31
2023-03-20T03:54:49.988Z,1007.27
2023-03-20T03:55:50.111Z,1007.29
2023-03-20T03:56:54.994Z,1007.30
2023-03-20T03:57:49.963Z,1007.28
2023-03-20T03:58:49.940Z,1007.29
2023-03-20T03:59:49.955Z,1007.32
2023-03-20T04:00:49.923Z,1007.41
2023-03-20T04:01:49.929Z,1007.40
2023-03-20T04:02:49.908Z,1007.38
2023-03-20T04:03:49.888Z,1007.45
2023-03-20T04:04:49.964Z,1007.46
2023-03-20T04:05:49.871Z,1007.48
2023-03-20T04:06:49.856Z,1007.52
2023-03-20T04:07:54.937Z,1007.51
2023-03-20T04:08:49.836Z,1007.49
2023-03-20T04:09:49.832Z,1007.54
2023-03-20T04:10:49.818Z,1007.49
2023-03-20T04:11:49.807Z,1007.50
2023-03-20T04:12:49.812Z,1007.54
2023-03-20T04:13:49.805Z,1007.55
2023-03-20T04:14:49.771Z,1007.58
2023-03-20T04:15:49.902Z,1007.63
2023-03-20T04:16:49.748Z,1007.61
2023-03-20T04:17:49.736Z,1007.58
2023-03-20T04:18:54.756Z,1007.55
2023-03-20T04:19:49.730Z,1007.59
2023-03-20T04:20:49.714Z,1007.60
2023-03-20T04:21:49.693Z,1007.64
2023-03-20T04:22:49.694Z,1007.60
2023-03-20T04:23:49.683Z,1007.63
2023-03-20T04:24:49.659Z,1007.61
2023-03-20T04:25:49.670Z,1007.65
2023-03-20T04:26:49.636Z,1007.69
2023-03-20T04:27:49.660Z,1007.61
2023-03-20T04:28:49.632Z,1007.63
2023-03-20T04:29:54.627Z,1007.62
2023-03-20T04:30:49.593Z,1007.66
2023-03-20T04:31:49.779Z,1007.63
2023-03-20T04:32:49.648Z,1007.61
2023-03-20T04:33:49.586Z,1007.61
2023-03-20T04:34:49.549Z,1007.57
2023-03-20T04:35:49.574Z,1007.58
2023-03-20T04:36:49.528Z,1007.57
2023-03-20T04:37:49.533Z,1007.60
2023-03-20T04:38:49.511Z,1007.55
2023-03-20T04:39:49.494Z,1007.57
2023-03-20T04:40:54.514Z,1007.55
2023-03-20T04:41:49.478Z,1007.59
2023-03-20T04:42:49.456Z,1007.59
2023-03-20T04:43:49.496Z,1007.62
2023-03-20T04:44:49.438Z,1007.62
2023-03-20T04:45:49.471Z,1007.69
2023-03-20T04:46:49.418Z,1007.63
2023-03-20T04:47:49.424Z,1007.72
2023-03-20T04:48:49.409Z,1007.71
2023-03-20T04:49:49.401Z,1007.71
2023-03-20T04:50:49.371Z,1007.71
2023-03-20T04:51:54.381Z,1007.62
2023-03-20T04:52:49.349Z,1007.57
2023-03-20T04:53:49.347Z,1007.66
2023-03-20T04:54:49.325Z,1007.66
2023-03-20T04:55:49.342Z,1007.61
2023-03-20T04:56:49.303Z,1007.71
2023-03-20T04:57:49.303Z,1007.67
2023-03-20T04:58:49.291Z,1007.73
2023-03-20T04:59:49.275Z,1007.75
2023-03-20T05:00:49.300Z,1007.73
2023-03-20T05:01:49.267Z,1007.69
2023-03-20T05:02:54.281Z,1007.77
2023-03-20T05:03:49.266Z,1007.73
2023-03-20T05:04:49.222Z,1007.73
2023-03-20T05:05:49.204Z,1007.74
2023-03-20T05:06:49.270Z,1007.71
2023-03-20T05:07:49.203Z,1007.74
2023-03-20T05:08:49.180Z,1007.73
2023-03-20T05:09:49.159Z,1007.72
2023-03-20T05:10:49.146Z,1007.73
2023-03-20T05:11:49.136Z,1007.75
2023-03-20T05:12:49.126Z,1007.78
2023-03-20T05:13:54.179Z,1007.76
2023-03-20T05:14:49.100Z,1007.72
2023-03-20T05:15:49.088Z,1007.73
2023-03-20T05:16:49.124Z,1007.78
2023-03-20T05:17:51.639Z,1007.76
2023-03-20T05:18:49.086Z,1007.81
2023-03-20T05:19:49.072Z,1007.82
2023-03-20T05:20:49.031Z,1007.78
2023-03-20T05:21:49.026Z,1007.80
2023-03-20T05:22:49.023Z,1007.84
2023-03-20T05:23:49.009Z,1007.87
2023-03-20T05:24:54.011Z,1007.76
2023-03-20T05:25:48.986Z,1007.83
2023-03-20T05:26:48.965Z,1007.81
2023-03-20T05:27:48.954Z,1007.86
2023-03-20T05:28:48.952Z,1007.84
2023-03-20T05:29:48.931Z,1007.87
2023-03-20T05:30:48.929Z,1007.91
2023-03-20T05:31:48.936Z,1007.89
2023-03-20T05:32:48.957Z,1007.91
2023-03-20T05:33:48.899Z,1007.94
2023-03-20T05:34:48.898Z,1007.86
2023-03-20T05:35:53.962Z,1007.85
2023-03-20T05:36:48.851Z,1007.86
2023-03-20T05:37:48.867Z,1007.89
2023-03-20T05:38:48.842Z,1007.86
2023-03-20T05:39:48.825Z,1007.88
2023-03-20T05:40:48.811Z,1007.88
2023-03-20T05:41:48.809Z,1007.84
2023-03-20T05:42:48.785Z,1007.78
2023-03-20T05:43:48.805Z,1007.80
2023-03-20T05:44:48.766Z,1007.72
2023-03-20T05:45:48.823Z,1007.72
2023-03-20T05:46:53.774Z,1007.67
2023-03-20T05:47:48.737Z,1007.67
2023-03-20T05:48:48.728Z,1007.69
2023-03-20T05:49:48.749Z,1007.67
2023-03-20T05:50:48.714Z,1007.63
2023-03-20T05:51:48.693Z,1007.67
2023-03-20T05:52:48.671Z,1007.66
2023-03-20T05:53:48.673Z,1007.61
2023-03-20T05:54:48.652Z,1007.66
2023-03-20T05:55:48.655Z,1007.63
2023-03-20T05:56:48.705Z,1007.62
2023-03-20T05:57:53.642Z,1007.68
2023-03-20T05:58:48.620Z,1007.58
2023-03-20T05:59:48.614Z,1007.62
2023-03-20T06:00:48.595Z,1007.69
2023-03-20T06:01:48.599Z,1007.73
2023-03-20T06:02:48.583Z,1007.74
2023-03-20T06:03:48.655Z,1007.78
2023-03-20T06:04:48.543Z,1007.79
2023-03-20T06:05:48.531Z,1007.79
2023-03-20T06:06:48.541Z,1007.85
2023-03-20T06:07:48.521Z,1007.78
2023-03-20T06:08:53.528Z,1007.85
2023-03-20T06:09:48.488Z,1007.89
2023-03-20T06:10:48.474Z,1007.88
2023-03-20T06:11:48.467Z,1007.94
2023-03-20T06:12:48.476Z,1007.99
2023-03-20T06:13:48.457Z,1008.00
2023-03-20T06:14:48.439Z,1008.05
2023-03-20T06:15:48.435Z,1008.13
2023-03-20T06:16:48.409Z,1008.11
2023-03-20T06:17:48.429Z,1008.12
2023-03-20T06:18:48.386Z,1008.12
2023-03-20T06:19:53.454Z,1008.10
2023-03-20T06:20:48.363Z,1008.11
2023-03-20T06:21:48.354Z,1008.10
2023-03-20T06:22:48.363Z,1008.11
2023-03-20T06:23:48.337Z,1008.12
2023-03-20T06:24:48.329Z,1008.08
2023-03-20T06:25:48.326Z,1008.06
2023-03-20T06:26:48.296Z,1008.09
2023-03-20T06:27:48.285Z,1008.13
2023-03-20T06:28:48.275Z,1008.02
2023-03-20T06:29:48.273Z,1008.13
2023-03-20T06:30:53.459Z,1008.15
2023-03-20T06:31:48.261Z,1008.15
2023-03-20T06:32:48.342Z,1008.14
2023-03-20T06:33:48.216Z,1008.14
2023-03-20T06:34:48.225Z,1008.11
2023-03-20T06:35:48.255Z,1008.06
2023-03-20T06:36:48.183Z,1008.15
2023-03-20T06:37:48.193Z,1008.09
2023-03-20T06:38:48.182Z,1008.09
2023-03-20T06:39:48.158Z,1008.20
2023-03-20T06:40:48.146Z,1008.19
2023-03-20T06:41:53.153Z,1008.19
2023-03-20T06:42:48.117Z,1008.16
2023-03-20T06:43:48.126Z,1008.16
2023-03-20T06:44:48.103Z,1008.14
2023-03-20T06:45:48.080Z,1008.15
2023-03-20T06:46:48.100Z,1008.21
2023-03-20T06:47:48.065Z,1008.20
2023-03-20T06:48:48.074Z,1008.23
2023-03-20T06:49:48.080Z,1008.22
2023-03-20T06:50:48.031Z,1008.30
2023-03-20T06:51:48.017Z,1008.36
2023-03-20T06:52:53.033Z,1008.31
2023-03-20T06:53:47.993Z,1008.29
2023-03-20T06:54:48.008Z,1008.28
2023-03-20T06:55:47.991Z,1008.32
2023-03-20T06:56:47.962Z,1008.34
2023-03-20T06:57:47.945Z,1008.27
2023-03-20T06:58:47.939Z,1008.30
2023-03-20T06:59:47.945Z,1008.33
2023-03-20T07:00:47.914Z,1008.32
2023-03-20T07:01:48.140Z,1008.33
2023-03-20T07:02:47.891Z,1008.25
2023-03-20T07:03:52.911Z,1008.30
2023-03-20T07:04:47.900Z,1008.42
2023-03-20T07:05:47.859Z,1008.28
2023-03-20T07:06:47.850Z,1008.36
2023-03-20T07:07:47.861Z,1008.32
2023-03-20T07:08:47.826Z,1008.32
2023-03-20T07:09:47.825Z,1008.40
2023-03-20T07:10:47.830Z,1008.36
2023-03-20T07:11:47.796Z,1008.29
2023-03-20T07:12:47.785Z,1008.27
2023-03-20T07:13:49.842Z,1008.28
2023-03-20T07:14:52.802Z,1008.29
2023-03-20T07:16:03.032Z,1008.30
2023-03-20T07:16:47.827Z,1008.24
2023-03-20T07:17:47.731Z,1008.22
2023-03-20T07:18:47.722Z,1008.24
2023-03-20T07:19:47.752Z,1008.22
2023-03-20T07:20:47.697Z,1008.19
2023-03-20T07:21:47.686Z,1008.24
2023-03-20T07:22:47.677Z,1008.25
2023-03-20T07:23:47.666Z,1008.28
2023-03-20T07:24:47.684Z,1008.27
2023-03-20T07:25:52.691Z,1008.34
2023-03-20T07:26:47.636Z,1008.30
2023-03-20T07:27:47.617Z,1008.30
2023-03-20T07:28:47.610Z,1008.27
2023-03-20T07:29:47.616Z,1008.23
2023-03-20T07:30:47.590Z,1008.32
2023-03-20T07:31:47.630Z,1008.27
2023-03-20T07:32:47.599Z,1008.27
2023-03-20T07:33:47.556Z,1008.28
2023-03-20T07:34:47.595Z,1008.27
2023-03-20T07:35:47.614Z,1008.27
2023-03-20T07:36:52.542Z,1008.36
2023-03-20T07:37:47.535Z,1008.30
2023-03-20T07:38:47.495Z,1008.31
2023-03-20T07:39:47.492Z,1008.32
2023-03-20T07:40:47.471Z,1008.38
2023-03-20T07:41:47.497Z,1008.29
2023-03-20T07:42:47.481Z,1008.31
2023-03-20T07:43:47.441Z,1008.35
2023-03-20T07:44:47.452Z,1008.38
2023-03-20T07:45:47.459Z,1008.40
2023-03-20T07:46:47.407Z,1008.43
2023-03-20T07:47:52.445Z,1008.39
2023-03-20T07:48:47.378Z,1008.38
2023-03-20T07:49:47.406Z,1008.32
2023-03-20T07:50:47.389Z,1008.32
2023-03-20T07:51:47.345Z,1008.39
2023-03-20T07:52:47.336Z,1008.42
2023-03-20T07:53:47.324Z,1008.44
2023-03-20T07:54:47.329Z,1008.45
2023-03-20T07:55:47.334Z,1008.51
2023-03-20T07:56:47.295Z,1008.47
2023-03-20T07:57:47.299Z,1008.50
2023-03-20T07:58:52.299Z,1008.51
2023-03-20T07:59:47.269Z,1008.44
2023-03-20T08:00:47.248Z,1008.49
2023-03-20T08:01:47.253Z,1008.57
2023-03-20T08:02:47.377Z,1008.52
2023-03-20T08:03:47.278Z,1008.54
2023-03-20T08:04:47.213Z,1008.50
2023-03-20T08:05:47.994Z,1008.52
2023-03-20T08:06:47.184Z,1008.51
2023-03-20T08:07:47.194Z,1008.58
2023-03-20T08:08:47.156Z,1008.55
2023-03-20T08:09:52.178Z,1008.59
2023-03-20T08:10:47.137Z,1008.61
2023-03-20T08:11:47.124Z,1008.57
2023-03-20T08:12:47.117Z,1008.63
2023-03-20T08:13:47.145Z,1008.53
2023-03-20T08:14:47.108Z,1008.57
2023-03-20T08:15:47.185Z,1008.54
2023-03-20T08:16:47.166Z,1008.60
2023-03-20T08:17:47.086Z,1008.63
2023-03-20T08:18:47.053Z,1008.56
2023-03-20T08:19:47.065Z,1008.56
2023-03-20T08:20:52.053Z,1008.57
2023-03-20T08:21:47.019Z,1008.59
2023-03-20T08:22:47.007Z,1008.58
2023-03-20T08:23:47.008Z,1008.67
2023-03-20T08:24:47.017Z,1008.67
2023-03-20T08:25:46.981Z,1008.68
2023-03-20T08:26:46.963Z,1008.66
2023-03-20T08:27:46.949Z,1008.61
2023-03-20T08:28:48.616Z,1008.64
2023-03-20T08:29:46.979Z,1008.63
2023-03-20T08:30:46.932Z,1008.65
2023-03-20T08:31:51.943Z,1008.66
2023-03-20T08:32:46.989Z,1008.73
2023-03-20T08:33:46.892Z,1008.71
2023-03-20T08:34:46.887Z,1008.62
2023-03-20T08:35:47.296Z,1008.71
2023-03-20T08:36:46.856Z,1008.71
2023-03-20T08:37:46.872Z,1008.73
2023-03-20T08:38:46.835Z,1008.69
2023-03-20T08:39:46.835Z,1008.71
2023-03-20T08:40:46.809Z,1008.66
2023-03-20T08:41:46.797Z,1008.67
2023-03-20T08:42:51.812Z,1008.71
2023-03-20T08:43:46.824Z,1008.63
2023-03-20T08:44:46.772Z,1008.61
2023-03-20T08:45:46.847Z,1008.70
2023-03-20T08:46:46.752Z,1008.69
2023-03-20T08:47:46.729Z,1008.65
2023-03-20T08:48:46.720Z,1008.67
2023-03-20T08:49:46.715Z,1008.72
2023-03-20T08:50:46.844Z,1008.80
2023-03-20T08:51:46.694Z,1008.74
2023-03-20T08:52:46.677Z,1008.73
2023-03-20T08:53:51.685Z,1008.80
2023-03-20T08:54:46.674Z,1008.74
2023-03-20T08:55:46.642Z,1008.89
2023-03-20T08:56:46.656Z,1008.90
2023-03-20T08:57:46.614Z,1008.88
2023-03-20T08:58:46.617Z,1008.84
2023-03-20T08:59:46.602Z,1008.92
2023-03-20T09:00:46.590Z,1009.05
2023-03-20T09:01:50.193Z,1008.99
2023-03-20T09:02:46.595Z,1009.05
2023-03-20T09:03:46.580Z,1009.00
2023-03-20T09:04:51.585Z,1009.00
2023-03-20T09:05:46.540Z,1009.00
2023-03-20T09:06:46.515Z,1008.95
2023-03-20T09:07:46.540Z,1008.89
2023-03-20T09:08:46.506Z,1008.91
2023-03-20T09:09:46.486Z,1008.89
2023-03-20T09:10:46.482Z,1008.94
2023-03-20T09:11:46.456Z,1008.97
2023-03-20T09:12:46.446Z,1008.96
2023-03-20T09:13:46.433Z,1008.95
2023-03-20T09:14:46.473Z,1008.97
2023-03-20T09:15:51.631Z,1008.95
2023-03-20T09:16:46.400Z,1009.02
2023-03-20T09:17:46.555Z,1008.97
2023-03-20T09:18:46.381Z,1009.03
2023-03-20T09:19:46.367Z,1009.03
2023-03-20T09:20:46.394Z,1008.99
2023-03-20T09:21:46.348Z,1009.00
2023-03-20T09:22:46.365Z,1009.04
2023-03-20T09:23:46.322Z,1009.01
2023-03-20T09:24:46.315Z,1009.08
2023-03-20T09:25:46.317Z,1009.08
2023-03-20T09:26:51.312Z,1009.02
2023-03-20T09:27:46.316Z,1009.04
2023-03-20T09:28:46.274Z,1009.05
2023-03-20T09:29:46.260Z,1009.04
2023-03-20T09:30:46.349Z,1009.04
2023-03-20T09:31:46.235Z,1009.05
2023-03-20T09:32:46.265Z,1009.03
2023-03-20T09:33:46.322Z,1009.07
2023-03-20T09:34:46.204Z,1009.05
2023-03-20T09:35:46.207Z,1009.05
2023-03-20T09:36:46.181Z,1009.07
2023-03-20T09:37:51.186Z,1009.15
2023-03-20T09:38:46.156Z,1009.14
2023-03-20T09:39:46.169Z,1009.15
2023-03-20T09:40:46.141Z,1009.19
2023-03-20T09:41:56.586Z,1009.15
2023-03-20T09:42:47.119Z,1009.13
2023-03-20T09:43:46.104Z,1009.14
2023-03-20T09:44:46.106Z,1009.18
2023-03-20T09:45:46.114Z,1009.12
2023-03-20T09:46:46.179Z,1009.19
2023-03-20T09:47:46.054Z,1009.14
2023-03-20T09:48:54.257Z,1009.15
2023-03-20T09:49:46.033Z,1009.20
2023-03-20T09:50:46.033Z,1009.22
2023-03-20T09:51:46.030Z,1009.22
2023-03-20T09:52:46.004Z,1009.16
2023-03-20T09:53:45.999Z,1009.26
2023-03-20T09:54:54.033Z,1009.21
2023-03-20T09:55:46.035Z,1009.20
2023-03-20T09:56:45.957Z,1009.17
2023-03-20T09:57:45.950Z,1009.17
2023-03-20T09:58:45.935Z,1009.09
2023-03-20T09:59:50.939Z,1009.15
2023-03-20T10:00:45.930Z,1009.13
2023-03-20T10:01:45.985Z,1009.16
2023-03-20T10:02:45.901Z,1009.19
2023-03-20T10:03:45.905Z,1009.23
2023-03-20T10:04:45.914Z,1009.18
2023-03-20T10:05:45.867Z,1009.21
2023-03-20T10:06:45.847Z,1009.20
2023-03-20T10:07:45.839Z,1009.17
2023-03-20T10:08:45.822Z,1009.23
2023-03-20T10:09:45.834Z,1009.28
2023-03-20T10:10:50.830Z,1009.11
2023-03-20T10:11:45.791Z,1009.15
2023-03-20T10:12:45.772Z,1009.15
2023-03-20T10:13:45.760Z,1009.14
2023-03-20T10:14:45.758Z,1009.11
2023-03-20T10:15:45.782Z,1009.14
2023-03-20T10:16:45.730Z,1009.08
2023-03-20T10:17:45.717Z,1009.08
2023-03-20T10:18:45.711Z,1009.17
2023-03-20T10:19:45.699Z,1009.08
2023-03-20T10:20:45.722Z,1009.08
2023-03-20T10:21:50.825Z,1009.18
2023-03-20T10:22:45.671Z,1009.14
2023-03-20T10:23:45.647Z,1009.17
2023-03-20T10:24:45.638Z,1009.12
2023-03-20T10:25:45.634Z,1009.14
2023-03-20T10:26:45.616Z,1009.14
2023-03-20T10:27:45.631Z,1009.14
2023-03-20T10:28:45.628Z,1009.19
2023-03-20T10:29:45.584Z,1009.16
2023-03-20T10:30:45.597Z,1009.12
2023-03-20T10:31:45.602Z,1009.18
2023-03-20T10:32:50.616Z,1009.19
2023-03-20T10:33:45.560Z,1009.10
2023-03-20T10:34:45.535Z,1009.10
2023-03-20T10:35:45.621Z,1009.14
2023-03-20T10:36:45.537Z,1009.11
2023-03-20T10:37:45.500Z,1009.11
2023-03-20T10:38:45.492Z,1009.07
2023-03-20T10:39:45.496Z,1009.10
2023-03-20T10:40:45.473Z,1009.11
2023-03-20T10:41:45.446Z,1009.17
2023-03-20T10:42:45.436Z,1009.16
2023-03-20T10:43:50.448Z,1009.12
2023-03-20T10:44:45.428Z,1009.11
2023-03-20T10:45:45.448Z,1009.14
2023-03-20T10:46:45.519Z,1009.11
2023-03-20T10:47:45.392Z,1009.09
2023-03-20T10:48:45.371Z,1009.07
2023-03-20T10:49:45.357Z,1009.05
2023-03-20T10:50:45.385Z,1009.10
2023-03-20T10:51:45.358Z,1009.04
2023-03-20T10:52:45.344Z,1009.04
2023-03-20T10:53:45.316Z,1008.98
2023-03-20T10:54:50.328Z,1009.04
2023-03-20T10:55:45.314Z,1008.99
2023-03-20T10:56:45.329Z,1009.03
2023-03-20T10:57:45.298Z,1009.10
2023-03-20T10:58:45.258Z,1009.05
2023-03-20T10:59:45.245Z,1009.09
2023-03-20T11:00:45.254Z,1009.05
2023-03-20T11:01:45.232Z,1008.97
2023-03-20T11:02:45.223Z,1009.04
2023-03-20T11:03:45.237Z,1008.99
2023-03-20T11:04:45.192Z,1008.98
2023-03-20T11:06:06.407Z,1009.08
2023-03-20T11:06:46.180Z,1009.07
2023-03-20T11:07:45.163Z,1009.13
2023-03-20T11:08:45.170Z,1009.06
2023-03-20T11:09:45.170Z,1008.98
2023-03-20T11:10:45.133Z,1008.99
2023-03-20T11:11:45.123Z,1008.99
2023-03-20T11:12:45.105Z,1009.02
2023-03-20T11:13:45.103Z,1009.05
2023-03-20T11:14:45.083Z,1009.02
2023-03-20T11:15:45.094Z,1008.92
2023-03-20T11:16:50.184Z,1008.94
2023-03-20T11:17:45.052Z,1008.95
2023-03-20T11:18:45.038Z,1008.92
2023-03-20T11:19:45.030Z,1008.88
2023-03-20T11:20:45.015Z,1008.91
2023-03-20T11:21:45.019Z,1008.86
2023-03-20T11:22:44.993Z,1008.94
2023-03-20T11:23:44.981Z,1008.92
2023-03-20T11:24:45.023Z,1008.98
2023-03-20T11:25:44.963Z,1008.98
2023-03-20T11:26:44.960Z,1008.90
2023-03-20T11:27:49.970Z,1008.90
2023-03-20T11:28:44.925Z,1009.00
2023-03-20T11:29:45.972Z,1008.95
2023-03-20T11:31:03.249Z,1008.86
2023-03-20T11:31:44.966Z,1008.81
2023-03-20T11:32:44.911Z,1008.86
2023-03-20T11:33:44.906Z,1008.84
2023-03-20T11:34:44.869Z,1008.89
2023-03-20T11:35:44.891Z,1008.77
2023-03-20T11:36:48.825Z,1008.86
2023-03-20T11:37:44.827Z,1008.74
2023-03-20T11:38:49.835Z,1008.73
2023-03-20T11:39:44.812Z,1008.76
2023-03-20T11:40:44.808Z,1008.82
2023-03-20T11:41:44.796Z,1008.79
2023-03-20T11:42:44.772Z,1008.73
2023-03-20T11:43:44.756Z,1008.84
2023-03-20T11:44:44.749Z,1008.85
2023-03-20T11:45:44.767Z,1008.93
2023-03-20T11:46:44.806Z,1008.80
2023-03-20T11:47:44.709Z,1008.70
2023-03-20T11:48:44.697Z,1008.71
2023-03-20T11:49:49.710Z,1008.69
2023-03-20T11:50:44.673Z,1008.65
2023-03-20T11:51:44.724Z,1008.64
2023-03-20T11:52:44.650Z,1008.61
2023-03-20T11:53:46.977Z,1008.56
2023-03-20T11:54:44.629Z,1008.64
2023-03-20T11:55:44.619Z,1008.72
2023-03-20T11:56:44.638Z,1008.59
2023-03-20T11:57:47.301Z,1008.60
2023-03-20T11:58:44.607Z,1008.58
2023-03-20T11:59:44.580Z,1008.58
2023-03-20T12:00:49.587Z,1008.65
2023-03-20T12:01:44.567Z,1008.54
2023-03-20T12:02:44.615Z,1008.60
2023-03-20T12:03:44.543Z,1008.55
2023-03-20T12:04:44.529Z,1008.61
2023-03-20T12:05:44.525Z,1008.53